首页
METAR-TAF:

METAR-TAF

机场 :

Bleibler Ranch Aerodrome

克林顿, 不列颠哥伦比亚, 加拿大

纬度: 51-15-59N, 经度: 121-41-05W, 海拔: 1126米

当前天气观测

该预报发布于33分钟前的16:00 UTC
风速8节,风向北转西北
温度 12°C
湿度 54%
气压 1012 hPa
能見度: 14.5公里
天空无云

METAR: CYIN 111600Z AUTO 34008KT 9SM CLR 12/03 A2989 RMK SLP121 DENSITY ALT 4200FT

时间: 09:33 (16:33 UTC)


TAF: 丢失

超过4000个机场的气象观测和天气预报(METAR&TAF报告)。

可查询的气象台以黄色和红色小点在地图上表示。

将鼠标移到小点上方,可查看气象台名称。

然后点击查看天气观测和预报。

如需切换地图:点击带黑十字的绿色按钮放大地图;点击带横线的绿色按钮缩小地图;或者点击绿色箭头查看邻近地区的地图。


METAR-TAF: